Terminal Aerodrome Forecast
Issued by NWS Wilmington, OH

Current Version | Previous Version | Graphics & Text | Print | Product List | Glossary On
Versions: 1 2 3 4 5 6 7 8 9 10 11 12 13 14 15 16 17 18 19 20 21
000
FTUS41 KILN 260200 AAA
TAFCMH
TAF AMD
KCMH 260222Z 2602/2624 19008KT P6SM VCSH SCT040 BKN100
     FM260700 17007KT P6SM BKN040
     FM261300 21011KT P6SM SCT035
     FM262000 20016G25KT P6SM VCTS BKN035CB=

USA.gov is the U.S. government's official web portal to all federal, state and local government web resources and services.